Time;durP1;ratioP1;P1;durP2;ratioP2;P2;SDS_P1;SDS_P2;PMS_P1;PMS_P2;Temp;Humidity;BMP_temperature;BMP_pressure;BME280_temperature;BME280_humidity;BME280_pressure;Samples;Min_cycle;Max_cycle;Signal;HPM_P1;HPM_P2
2021/12/24 00:00:21;;;;;;;103.53;54.20;;;;;;;-145.45;100.00;62759.84;5205686;28;20042;-93
2021/12/24 00:03:05;;;;;;;100.10;51.78;;;;;;;-145.45;100.00;62759.84;5205906;28;20045;-93
2021/12/24 00:05:58;;;;;;;87.50;41.92;;;;;;;-145.45;100.00;62759.84;5216718;28;20019;-93
2021/12/24 00:08:29;;;;;;;95.15;48.83;;;;;;;-145.45;100.00;62759.84;5229826;28;20039;-93
2021/12/24 00:11:02;;;;;;;94.88;51.38;;;;;;;-145.45;100.00;62759.84;5246711;28;20019;-93
2021/12/24 00:13:43;;;;;;;84.97;51.47;;;;;;;-145.45;100.00;62759.84;5247761;28;20029;-93
2021/12/24 00:16:32;;;;;;;86.57;45.17;;;;;;;-145.45;100.00;62759.84;5242410;28;20081;-92
2021/12/24 00:19:36;;;;;;;89.65;47.40;;;;;;;-145.45;100.00;62759.84;5208653;28;20033;-93
2021/12/24 00:36:16;;;;;;;88.75;48.38;;;;;;;-145.45;100.00;62759.84;5223052;28;20038;-93
2021/12/24 00:38:48;;;;;;;82.15;49.00;;;;;;;-145.45;100.00;62759.84;5223898;28;20073;-93
2021/12/24 00:41:28;;;;;;;90.22;47.75;;;;;;;-145.45;100.00;62759.84;5205582;28;20464;-93
2021/12/24 00:44:05;;;;;;;85.35;48.53;;;;;;;-145.45;100.00;62759.84;5204995;28;20096;-93
2021/12/24 00:46:42;;;;;;;81.28;54.22;;;;;;;-145.45;100.00;62759.84;5222136;28;20018;-94
2021/12/24 00:49:14;;;;;;;77.60;49.95;;;;;;;-145.45;100.00;62759.84;5222915;28;20085;-94
2021/12/24 00:52:06;;;;;;;77.07;47.35;;;;;;;-145.45;100.00;62759.84;5223423;28;20491;-93
2021/12/24 00:57:28;;;;;;;72.10;49.92;;;;;;;-145.45;100.00;62759.84;5222923;28;20023;-93
2021/12/24 01:00:08;;;;;;;74.25;47.28;;;;;;;-145.45;100.00;62759.84;5204445;28;20431;-93
2021/12/24 01:02:43;;;;;;;77.75;49.72;;;;;;;-145.45;100.00;62759.84;5203844;28;20038;-92
2021/12/24 01:05:29;;;;;;;72.15;46.78;;;;;;;-145.45;100.00;62759.84;5204641;28;20034;-93
2021/12/24 01:08:06;;;;;;;78.88;48.45;;;;;;;-145.45;100.00;62759.84;5204396;28;20046;-93
2021/12/24 01:10:46;;;;;;;79.90;49.17;;;;;;;-145.45;100.00;62759.84;5204276;28;20022;-93
2021/12/24 01:13:18;;;;;;;85.88;50.30;;;;;;;-145.45;100.00;62759.84;5204357;28;20026;-94
2021/12/24 01:21:48;;;;;;;106.38;53.95;;;;;;;-145.45;100.00;62759.84;5221589;28;20026;-93
2021/12/24 01:24:30;;;;;;;100.10;56.50;;;;;;;-145.45;100.00;62759.84;5221916;28;20027;-93
2021/12/24 01:27:39;;;;;;;97.50;54.70;;;;;;;-145.45;100.00;62759.84;5204273;28;20022;-93
2021/12/24 01:30:05;;;;;;;114.72;65.28;;;;;;;-145.45;100.00;62759.84;5219889;28;20054;-94
2021/12/24 01:38:25;;;;;;;112.75;65.45;;;;;;;-145.45;100.00;62759.84;5222520;28;20034;-93
2021/12/24 01:41:09;;;;;;;106.95;59.13;;;;;;;-145.45;100.00;62759.84;5204478;28;20053;-93
2021/12/24 01:43:45;;;;;;;122.57;65.05;;;;;;;-145.45;100.00;62759.84;5222680;28;20038;-92
2021/12/24 01:46:19;;;;;;;135.75;68.95;;;;;;;-145.45;100.00;62759.84;5221858;28;20466;-93
2021/12/24 01:49:01;;;;;;;134.25;66.75;;;;;;;-145.45;100.00;62759.84;5227095;28;20026;-92
2021/12/24 01:51:33;;;;;;;112.20;53.70;;;;;;;-145.45;100.00;62759.84;5203537;28;20081;-92
2021/12/24 01:54:11;;;;;;;116.47;63.20;;;;;;;-145.45;100.00;62759.84;5204132;28;20022;-93
2021/12/24 01:56:44;;;;;;;134.73;76.28;;;;;;;-145.45;100.00;62759.84;5203750;28;20051;-94
2021/12/24 01:59:16;;;;;;;133.15;68.53;;;;;;;-145.45;100.00;62759.84;5221844;28;20034;-93
2021/12/24 02:01:53;;;;;;;132.00;71.55;;;;;;;-145.45;100.00;62759.84;5203366;28;20060;-93
2021/12/24 02:04:26;;;;;;;127.40;72.93;;;;;;;-145.45;100.00;62759.84;5221506;28;20018;-93
2021/12/24 02:06:59;;;;;;;123.93;78.05;;;;;;;-145.45;100.00;62759.84;5203455;28;20488;-93
2021/12/24 02:09:36;;;;;;;110.75;57.83;;;;;;;-145.45;100.00;62759.84;5221953;28;20042;-93
2021/12/24 02:12:11;;;;;;;120.70;66.05;;;;;;;-145.45;100.00;62759.84;5203826;28;20539;-93
2021/12/24 02:14:51;;;;;;;120.80;71.15;;;;;;;-145.45;100.00;62759.84;5221668;28;20026;-93
2021/12/24 02:29:02;;;;;;;119.43;68.03;;;;;;;-145.45;100.00;62759.84;5221918;28;20034;-93
2021/12/24 02:31:49;;;;;;;122.90;66.88;;;;;;;-145.45;100.00;62759.84;5203650;28;20519;-93
2021/12/24 02:34:27;;;;;;;110.80;60.40;;;;;;;-145.45;100.00;62759.84;5203393;28;20030;-93
2021/12/24 02:37:13;;;;;;;119.63;68.07;;;;;;;-145.45;100.00;62759.84;5197180;28;20038;-92
2021/12/24 02:39:50;;;;;;;120.25;71.35;;;;;;;-145.45;100.00;62759.84;5219753;28;20077;-93
2021/12/24 02:42:25;;;;;;;134.75;74.43;;;;;;;-145.45;100.00;62759.84;5203052;28;20940;-93
2021/12/24 02:44:57;;;;;;;134.43;71.03;;;;;;;-145.45;100.00;62759.84;5220719;28;20053;-92
2021/12/24 02:56:10;;;;;;;146.70;73.10;;;;;;;-145.45;100.00;62759.84;5221945;28;20064;-92
2021/12/24 02:58:50;;;;;;;140.45;75.85;;;;;;;-145.45;100.00;62759.84;5222149;28;20026;-93
2021/12/24 03:01:34;;;;;;;140.35;74.93;;;;;;;-145.45;100.00;62759.84;5221361;28;20034;-93
2021/12/24 03:04:07;;;;;;;145.43;72.45;;;;;;;-145.45;100.00;62759.84;5203283;28;20026;-93
2021/12/24 03:06:45;;;;;;;147.13;80.03;;;;;;;-145.45;100.00;62759.84;5202853;28;20031;-92
2021/12/24 03:09:21;;;;;;;159.52;78.82;;;;;;;-145.45;100.00;62759.84;5220699;28;20026;-92
2021/12/24 03:11:57;;;;;;;144.17;81.87;;;;;;;-145.45;100.00;62759.84;5202613;28;20144;-93
2021/12/24 03:14:34;;;;;;;141.38;65.35;;;;;;;-145.45;100.00;62759.84;5202781;28;20018;-93
2021/12/24 03:17:16;;;;;;;;;;;;;;;-145.45;100.00;62759.84;5221589;28;20035;-93
2021/12/24 03:20:06;;;;;;;138.50;69.45;;;;;;;-145.45;100.00;62759.84;5202945;28;20255;-93
2021/12/24 03:23:05;;;;;;;138.15;72.60;;;;;;;-145.45;100.00;62759.84;5202784;28;20041;-92
2021/12/24 03:25:37;;;;;;;145.20;78.40;;;;;;;-145.45;100.00;62759.84;5202915;28;20480;-92
2021/12/24 03:28:19;;;;;;;151.75;72.80;;;;;;;-145.45;100.00;62759.84;5221141;28;20027;-92
2021/12/24 03:30:54;;;;;;;134.48;69.78;;;;;;;-145.45;100.00;62759.84;5213103;28;20022;-93
2021/12/24 03:33:26;;;;;;;145.27;68.57;;;;;;;-145.45;100.00;62759.84;5200462;28;20038;-92
2021/12/24 03:36:00;;;;;;;152.25;71.22;;;;;;;-145.45;100.00;62759.84;5182601;28;20027;-93
2021/12/24 03:38:41;;;;;;;137.90;67.25;;;;;;;-145.45;100.00;62759.84;5182189;28;20535;-91
2021/12/24 03:41:13;;;;;;;131.60;68.40;;;;;;;-145.45;100.00;62759.84;5183995;28;20368;-92
2021/12/24 03:43:47;;;;;;;138.85;68.13;;;;;;;-145.45;100.00;62759.84;5220783;28;20073;-92
2021/12/24 03:46:31;;;;;;;141.70;66.65;;;;;;;-145.45;100.00;62759.84;5202058;28;20018;-92
2021/12/24 03:49:15;;;;;;;136.15;67.35;;;;;;;-145.45;100.00;62759.84;5202869;28;20053;-92
2021/12/24 03:51:58;;;;;;;134.38;68.60;;;;;;;-145.45;100.00;62759.84;5220158;28;20040;-92
2021/12/24 03:57:29;;;;;;;129.15;62.72;;;;;;;-145.45;100.00;62759.84;5220910;28;20487;-92
2021/12/24 04:00:10;;;;;;;131.27;61.65;;;;;;;-145.45;100.00;62759.84;5202462;28;20023;-92
2021/12/24 04:02:42;;;;;;;119.72;56.90;;;;;;;-145.45;100.00;62759.84;5220469;28;20450;-92
2021/12/24 04:05:14;;;;;;;102.95;57.75;;;;;;;-145.45;100.00;62759.84;5220651;28;20033;-92
2021/12/24 04:07:49;;;;;;;109.15;57.15;;;;;;;-145.45;100.00;62759.84;5202505;28;20102;-92
2021/12/24 04:10:39;;;;;;;112.25;54.92;;;;;;;-145.45;100.00;62759.84;5202476;28;20500;-92
2021/12/24 04:13:13;;;;;;;106.18;53.15;;;;;;;-145.45;100.00;62759.84;5202062;28;20022;-93
2021/12/24 04:15:47;;;;;;;90.60;47.63;;;;;;;-145.45;100.00;62759.84;5202267;28;20519;-91
2021/12/24 04:26:51;;;;;;;77.93;39.53;;;;;;;-145.45;100.00;62759.84;5223629;28;20034;-93
2021/12/24 04:29:22;;;;;;;67.10;34.75;;;;;;;-145.45;100.00;62759.84;5205668;28;20451;-92
2021/12/24 04:32:09;;;;;;;68.85;35.10;;;;;;;-145.45;100.00;62759.84;5206748;28;20416;-92
2021/12/24 04:34:47;;;;;;;62.90;34.17;;;;;;;-145.45;100.00;62759.84;5205494;28;20487;-92
2021/12/24 04:51:41;;;;;;;48.88;27.45;;;;;;;-145.45;100.00;62759.84;5202910;28;20039;-92
2021/12/24 05:02:55;;;;;;;52.13;26.75;;;;;;;-145.45;100.00;62759.84;5203419;28;20027;-92
2021/12/24 05:10:48;;;;;;;55.72;27.38;;;;;;;-145.45;100.00;62759.84;5221631;28;20038;-92
2021/12/24 05:13:24;;;;;;;57.43;28.17;;;;;;;-145.45;100.00;62759.84;5204412;28;20033;-92
2021/12/24 05:16:06;;;;;;;47.53;26.03;;;;;;;-145.45;100.00;62759.84;5219440;28;20042;-92
2021/12/24 05:19:04;;;;;;;50.92;28.38;;;;;;;-145.45;100.00;62759.84;5228123;28;20078;-93
2021/12/24 05:21:42;;;;;;;52.50;26.83;;;;;;;-145.45;100.00;62759.84;5245120;28;20022;-92
2021/12/24 05:24:24;;;;;;;47.00;24.58;;;;;;;-145.45;100.00;62759.84;5227907;28;20025;-92
2021/12/24 05:27:02;;;;;;;54.97;25.83;;;;;;;-145.45;100.00;62759.84;5244083;28;20057;-92
2021/12/24 05:29:35;;;;;;;51.90;24.98;;;;;;;-145.45;100.00;62759.84;5214086;28;20022;-92
2021/12/24 05:32:07;;;;;;;47.83;26.55;;;;;;;-145.45;100.00;62759.84;5207361;28;20030;-93
2021/12/24 05:34:42;;;;;;;50.85;24.75;;;;;;;-145.45;100.00;62759.84;5223808;28;20084;-92
2021/12/24 05:37:13;;;;;;;43.13;23.73;;;;;;;-145.45;100.00;62759.84;5224307;28;20109;-93
2021/12/24 05:39:50;;;;;;;47.78;23.90;;;;;;;-145.45;100.00;62759.84;5207191;28;20510;-92
2021/12/24 05:42:26;;;;;;;45.53;22.67;;;;;;;-145.45;100.00;62759.84;5205821;28;20045;-92
2021/12/24 05:45:04;;;;;;;44.95;23.98;;;;;;;-145.45;100.00;62759.84;5205305;28;20387;-91
2021/12/24 05:47:41;;;;;;;47.05;22.52;;;;;;;-145.45;100.00;62759.84;5204777;28;20098;-92
2021/12/24 05:50:15;;;;;;;38.53;21.77;;;;;;;-145.45;100.00;62759.84;5221815;28;20038;-92
2021/12/24 05:52:52;;;;;;;39.50;19.63;;;;;;;-145.45;100.00;62759.84;5204856;28;20030;-92
2021/12/24 05:55:24;;;;;;;43.53;20.02;;;;;;;-145.45;100.00;62759.84;5203717;28;20044;-92
2021/12/24 05:57:56;;;;;;;46.60;20.45;;;;;;;-145.45;100.00;62759.84;5204591;28;20034;-92
2021/12/24 06:00:30;;;;;;;39.13;18.77;;;;;;;-145.45;100.00;62759.84;5203888;28;20125;-92
2021/12/24 06:03:02;;;;;;;41.35;18.42;;;;;;;-145.45;100.00;62759.84;5203696;28;20037;-92
2021/12/24 06:05:42;;;;;;;43.20;17.55;;;;;;;-145.45;100.00;62759.84;5205053;28;20384;-92
2021/12/24 06:08:16;;;;;;;34.35;17.52;;;;;;;-145.45;100.00;62759.84;5201152;28;20093;-92
2021/12/24 06:10:50;;;;;;;42.97;18.70;;;;;;;-145.45;100.00;62759.84;5219734;28;20511;-92
2021/12/24 06:13:25;;;;;;;42.25;17.85;;;;;;;-145.45;100.00;62759.84;5204177;28;20023;-92
2021/12/24 06:15:57;;;;;;;36.30;18.15;;;;;;;-145.45;100.00;62759.84;5221479;28;20034;-92
2021/12/24 06:18:29;;;;;;;37.92;18.13;;;;;;;-145.45;100.00;62759.84;5204267;28;20088;-92
2021/12/24 06:21:06;;;;;;;33.70;17.35;;;;;;;-145.45;100.00;62759.84;5218406;28;20037;-92
2021/12/24 06:23:39;;;;;;;33.03;17.73;;;;;;;-145.45;100.00;62759.84;5221791;28;20029;-92
2021/12/24 06:26:12;;;;;;;33.00;17.20;;;;;;;-145.45;100.00;62759.84;5221920;28;20085;-91
2021/12/24 06:28:43;;;;;;;40.70;18.23;;;;;;;-145.45;100.00;62759.84;5221628;28;20097;-92
2021/12/24 06:31:15;;;;;;;36.15;15.55;;;;;;;-145.45;100.00;62759.84;5221576;28;20566;-92
2021/12/24 06:33:47;;;;;;;33.05;17.25;;;;;;;-145.45;100.00;62759.84;5204513;28;20066;-92
2021/12/24 06:36:24;;;;;;;34.92;16.75;;;;;;;-145.45;100.00;62759.84;5203427;28;20043;-92
2021/12/24 06:38:56;;;;;;;34.72;16.85;;;;;;;-145.45;100.00;62759.84;5203575;28;20026;-92
2021/12/24 06:41:30;;;;;;;31.02;15.88;;;;;;;-145.45;100.00;62759.84;5203790;28;20490;-92
2021/12/24 06:44:04;;;;;;;32.97;15.77;;;;;;;-145.45;100.00;62759.84;5220438;28;20071;-92
2021/12/24 06:46:40;;;;;;;32.47;17.15;;;;;;;-145.45;100.00;62759.84;5203490;28;20034;-91
2021/12/24 06:49:11;;;;;;;35.97;15.57;;;;;;;-145.45;100.00;62759.84;5203353;28;20041;-92
2021/12/24 06:51:44;;;;;;;37.40;17.15;;;;;;;-145.45;100.00;62759.84;5203707;28;20034;-93
2021/12/24 06:54:18;;;;;;;33.63;15.95;;;;;;;-145.45;100.00;62759.84;5221490;28;20029;-92
2021/12/24 06:56:56;;;;;;;40.58;16.25;;;;;;;-145.45;100.00;62759.84;5202812;28;20034;-92
2021/12/24 06:59:31;;;;;;;29.08;14.85;;;;;;;-145.45;100.00;62759.84;5220600;28;20103;-92
2021/12/24 07:02:02;;;;;;;32.22;15.75;;;;;;;-145.45;100.00;62759.84;5206126;28;20034;-92
2021/12/24 07:04:36;;;;;;;33.22;14.18;;;;;;;-145.45;100.00;62759.84;5204361;28;20061;-91
2021/12/24 07:07:08;;;;;;;31.25;16.55;;;;;;;-145.45;100.00;62759.84;5203173;28;20511;-92
2021/12/24 07:09:42;;;;;;;29.35;17.35;;;;;;;-145.45;100.00;62759.84;5204077;28;20113;-91
2021/12/24 07:12:17;;;;;;;35.55;18.83;;;;;;;-145.45;100.00;62759.84;5202030;28;20049;-91
2021/12/24 07:14:49;;;;;;;40.78;18.50;;;;;;;-145.45;100.00;62759.84;5220647;28;20059;-91
2021/12/24 07:17:24;;;;;;;37.92;20.80;;;;;;;-145.45;100.00;62759.84;5203084;28;20514;-91
2021/12/24 07:19:55;;;;;;;37.10;19.13;;;;;;;-145.45;100.00;62759.84;5202761;28;20482;-91
2021/12/24 07:22:30;;;;;;;34.63;17.88;;;;;;;-145.45;100.00;62759.84;5203149;28;20061;-92
2021/12/24 07:25:04;;;;;;;35.03;18.02;;;;;;;-145.45;100.00;62759.84;5202583;28;20543;-91
2021/12/24 07:27:38;;;;;;;40.50;19.33;;;;;;;-145.45;100.00;62759.84;5203218;28;20039;-92
2021/12/24 07:30:16;;;;;;;48.17;20.13;;;;;;;-145.45;100.00;62759.84;5201900;28;20041;-91
2021/12/24 07:32:48;;;;;;;40.75;20.08;;;;;;;-145.45;100.00;62759.84;5220015;28;20027;-93
2021/12/24 07:35:28;;;;;;;41.80;20.63;;;;;;;-145.45;100.00;62759.84;5220627;28;20034;-92
2021/12/24 07:38:05;;;;;;;48.95;21.52;;;;;;;-145.45;100.00;62759.84;5220346;28;20034;-92
2021/12/24 07:40:44;;;;;;;50.75;23.25;;;;;;;-145.45;100.00;62759.84;5219996;28;20030;-92
2021/12/24 07:43:15;;;;;;;44.53;21.83;;;;;;;-145.45;100.00;62759.84;5205027;28;20022;-92
2021/12/24 07:45:50;;;;;;;43.05;22.45;;;;;;;-145.45;100.00;62759.84;5203192;28;20018;-92
2021/12/24 07:48:43;;;;;;;40.58;22.65;;;;;;;-145.45;100.00;62759.84;5212543;28;20027;-92
2021/12/24 07:54:07;;;;;;;46.53;23.33;;;;;;;-145.45;100.00;62759.84;5221972;28;20086;-91
2021/12/24 07:56:47;;;;;;;42.92;23.40;;;;;;;-145.45;100.00;62759.84;5207339;28;20033;-92
2021/12/24 07:59:21;;;;;;;44.75;22.35;;;;;;;-145.45;100.00;62759.84;5205944;28;20031;-92
2021/12/24 08:02:04;;;;;;;47.45;22.30;;;;;;;-145.45;100.00;62759.84;5225805;28;20030;-92
2021/12/24 08:04:39;;;;;;;41.67;21.75;;;;;;;-145.45;100.00;62759.84;5226466;28;20034;-92
2021/12/24 08:07:20;;;;;;;45.47;23.10;;;;;;;-145.45;100.00;62759.84;5218941;28;20043;-91
2021/12/24 08:09:59;;;;;;;40.17;21.50;;;;;;;-145.45;100.00;62759.84;5206811;28;20016;-91
2021/12/24 08:12:34;;;;;;;42.50;21.85;;;;;;;-145.45;100.00;62759.84;5189610;28;20072;-92
2021/12/24 08:15:11;;;;;;;44.53;20.90;;;;;;;-145.45;100.00;62759.84;5207728;28;20022;-92
2021/12/24 08:17:56;;;;;;;42.72;21.38;;;;;;;-145.45;100.00;62759.84;5176533;28;20038;-92
2021/12/24 08:20:33;;;;;;;41.35;20.40;;;;;;;-145.45;100.00;62759.84;5170382;28;20086;-92
2021/12/24 08:23:04;;;;;;;;;;;;;;;-145.45;100.00;62759.84;5184271;28;20019;-92
2021/12/24 08:25:41;;;;;;;44.58;20.92;;;;;;;-145.45;100.00;62759.84;5167295;28;20290;-91
2021/12/24 08:28:13;;;;;;;38.88;21.95;;;;;;;-145.45;100.00;62759.84;5166027;28;20479;-92
2021/12/24 08:30:48;;;;;;;43.78;21.15;;;;;;;-145.45;100.00;62759.84;5165227;28;20107;-92
2021/12/24 08:33:27;;;;;;;42.35;21.83;;;;;;;-145.45;100.00;62759.84;5164895;28;20023;-92
2021/12/24 08:36:00;;;;;;;42.13;21.30;;;;;;;-145.45;100.00;62759.84;5164301;28;20043;-92
2021/12/24 08:38:39;;;;;;;42.88;20.33;;;;;;;-145.45;100.00;62759.84;5165262;28;20046;-92
2021/12/24 08:41:14;;;;;;;40.22;20.63;;;;;;;-145.45;100.00;62759.84;5164903;28;20054;-92
2021/12/24 08:43:49;;;;;;;48.15;21.15;;;;;;;-145.45;100.00;62759.84;5182566;28;20031;-92
2021/12/24 08:46:33;;;;;;;39.17;18.58;;;;;;;-145.45;100.00;62759.84;5181920;28;20404;-92
2021/12/24 08:49:12;;;;;;;35.70;19.73;;;;;;;-145.45;100.00;62759.84;5164726;28;20031;-91
2021/12/24 08:51:50;;;;;;;34.88;18.75;;;;;;;-145.45;100.00;62759.84;5166038;28;20020;-92
2021/12/24 08:54:28;;;;;;;45.20;19.50;;;;;;;-145.45;100.00;62759.84;5184836;28;20046;-92
2021/12/24 08:57:03;;;;;;;34.83;18.88;;;;;;;-145.45;100.00;62759.84;5200544;28;20373;-92
2021/12/24 08:59:36;;;;;;;39.55;19.55;;;;;;;-145.45;100.00;62759.84;5184315;28;20042;-92
2021/12/24 09:02:12;;;;;;;45.75;20.25;;;;;;;-145.45;100.00;62759.84;5184583;28;20046;-92
2021/12/24 09:04:44;;;;;;;39.80;21.00;;;;;;;-145.45;100.00;62759.84;5184733;28;20034;-92
2021/12/24 09:07:23;;;;;;;44.60;22.85;;;;;;;-145.45;100.00;62759.84;5200902;28;20047;-92
2021/12/24 09:09:58;;;;;;;51.17;23.27;;;;;;;-145.45;100.00;62759.84;5202005;28;20440;-92
2021/12/24 09:12:39;;;;;;;51.75;22.50;;;;;;;-145.45;100.00;62759.84;5202289;28;20035;-91
2021/12/24 09:15:15;;;;;;;45.85;23.10;;;;;;;-145.45;100.00;62759.84;5184800;28;20023;-92
2021/12/24 09:17:51;;;;;;;44.55;24.85;;;;;;;-145.45;100.00;62759.84;5203006;28;20498;-92
2021/12/24 09:20:34;;;;;;;47.92;24.80;;;;;;;-145.45;100.00;62759.84;5200558;28;20061;-92
2021/12/24 09:23:12;;;;;;;53.13;24.17;;;;;;;-145.45;100.00;62759.84;5186206;28;20051;-91
2021/12/24 09:25:55;;;;;;;52.88;23.42;;;;;;;-145.45;100.00;62759.84;5185441;28;20392;-91
2021/12/24 09:28:35;;;;;;;44.80;24.00;;;;;;;-145.45;100.00;62759.84;5203652;28;20487;-91
2021/12/24 09:31:12;;;;;;;49.33;21.27;;;;;;;-145.45;100.00;62759.84;5185238;28;20058;-91
2021/12/24 09:33:45;;;;;;;;;;;;;;;-145.45;100.00;62759.84;5188118;28;20082;-91
2021/12/24 09:36:25;;;;;;;43.53;22.13;;;;;;;-145.45;100.00;62759.84;5203458;28;19989;-91
2021/12/24 09:39:09;;;;;;;45.75;22.13;;;;;;;-145.45;100.00;62759.84;5210558;28;20026;-92
2021/12/24 09:41:44;;;;;;;50.13;23.63;;;;;;;-145.45;100.00;62759.84;5212937;28;20006;-91
2021/12/24 09:44:16;;;;;;;45.13;20.35;;;;;;;-145.45;100.00;62759.84;5231619;28;20086;-91
2021/12/24 09:46:53;;;;;;;44.15;21.60;;;;;;;-145.45;100.00;62759.84;5213855;28;20086;-91
2021/12/24 09:49:27;;;;;;;43.95;21.42;;;;;;;-145.45;100.00;62759.84;5212899;28;20062;-92
2021/12/24 09:52:05;;;;;;;38.63;19.45;;;;;;;-145.45;100.00;62759.84;5213453;28;20033;-92
2021/12/24 09:54:55;;;;;;;47.80;21.67;;;;;;;-145.45;100.00;62759.84;5212231;28;20442;-91
2021/12/24 09:57:32;;;;;;;47.28;21.00;;;;;;;-145.45;100.00;62759.84;5207749;28;20098;-91
2021/12/24 10:00:21;;;;;;;42.72;20.25;;;;;;;-145.45;100.00;62759.84;5216273;28;20032;-92
2021/12/24 10:03:01;;;;;;;51.83;22.77;;;;;;;-145.45;100.00;62759.84;5227421;28;20053;-91
2021/12/24 10:05:54;;;;;;;45.85;24.50;;;;;;;-145.45;100.00;62759.84;5235823;28;20030;-91
2021/12/24 10:08:29;;;;;;;46.42;24.20;;;;;;;-145.45;100.00;62759.84;5220584;28;20474;-92
2021/12/24 10:11:07;;;;;;;47.40;25.00;;;;;;;-145.45;100.00;62759.84;5217132;28;20019;-91
2021/12/24 10:13:43;;;;;;;50.92;24.80;;;;;;;-145.45;100.00;62759.84;5216650;28;20033;-92
2021/12/24 10:16:22;;;;;;;52.20;26.75;;;;;;;-145.45;100.00;62759.84;5233543;28;20435;-91
2021/12/24 10:19:00;;;;;;;54.13;26.73;;;;;;;-145.45;100.00;62759.84;5212760;28;20122;-91
2021/12/24 10:21:36;;;;;;;53.67;26.10;;;;;;;-145.45;100.00;62759.84;5212650;28;20057;-92
2021/12/24 10:24:08;;;;;;;44.47;25.67;;;;;;;-145.45;100.00;62759.84;5212162;28;20027;-92
2021/12/24 10:26:48;;;;;;;47.00;26.23;;;;;;;-145.45;100.00;62759.84;5228095;28;20503;-93
2021/12/24 10:29:32;;;;;;;47.33;24.88;;;;;;;-145.45;100.00;62759.84;5207971;28;20056;-93
2021/12/24 10:32:24;;;;;;;48.17;25.48;;;;;;;-145.45;100.00;62759.84;5204422;28;20054;-92
2021/12/24 10:34:56;;;;;;;44.92;24.92;;;;;;;-145.45;100.00;62759.84;5212329;28;20039;-94
2021/12/24 10:37:30;;;;;;;46.75;25.75;;;;;;;-145.45;100.00;62759.84;5236165;28;20025;-92
2021/12/24 10:40:06;;;;;;;45.10;23.67;;;;;;;-145.45;100.00;62759.84;5215014;28;20653;-92
2021/12/24 10:42:43;;;;;;;48.97;25.05;;;;;;;-145.45;100.00;62759.84;5232307;28;20030;-92
2021/12/24 10:45:20;;;;;;;;;;;;;;;-145.45;100.00;62759.84;5216822;28;20031;-93
2021/12/24 10:47:54;;;;;;;51.50;24.52;;;;;;;-145.45;100.00;62759.84;5206974;28;19914;-91
2021/12/24 10:50:33;;;;;;;49.28;25.02;;;;;;;-145.45;100.00;62759.84;5228830;28;20093;-92
2021/12/24 10:55:51;;;;;;;51.47;28.13;;;;;;;-145.45;100.00;62759.84;5221952;28;20077;-92
2021/12/24 10:58:28;;;;;;;47.45;29.42;;;;;;;-145.45;100.00;62759.84;5209997;28;20049;-91
2021/12/24 11:01:07;;;;;;;55.75;32.60;;;;;;;-145.45;100.00;62759.84;5204857;28;20537;-93
2021/12/24 11:03:46;;;;;;;54.20;31.63;;;;;;;-145.45;100.00;62759.84;5221212;28;20022;-93
2021/12/24 11:06:19;;;;;;;67.10;35.85;;;;;;;-145.45;100.00;62759.84;5202720;28;20018;-92
2021/12/24 11:09:06;;;;;;;71.93;41.22;;;;;;;-145.45;100.00;62759.84;5204188;28;20049;-92
2021/12/24 11:11:38;;;;;;;73.55;37.95;;;;;;;-145.45;100.00;62759.84;5210465;28;20037;-91
2021/12/24 11:14:20;;;;;;;66.88;39.05;;;;;;;-145.45;100.00;62759.84;5229221;28;20021;-91
2021/12/24 11:16:51;;;;;;;60.47;35.70;;;;;;;-145.45;100.00;62759.84;5209530;28;20464;-92
2021/12/24 11:19:28;;;;;;;65.43;38.78;;;;;;;-145.45;100.00;62759.84;5219503;28;20088;-91
2021/12/24 11:22:04;;;;;;;64.68;41.10;;;;;;;-145.45;100.00;62759.84;5210871;28;20031;-92
2021/12/24 11:24:36;;;;;;;67.60;39.63;;;;;;;-145.45;100.00;62759.84;5208797;28;20108;-91
2021/12/24 11:27:08;;;;;;;71.47;42.03;;;;;;;-145.45;100.00;62759.84;5208407;28;20056;-91
2021/12/24 11:29:39;;;;;;;69.90;43.20;;;;;;;-145.45;100.00;62759.84;5207515;28;20102;-92
2021/12/24 11:32:11;;;;;;;69.38;40.65;;;;;;;-145.45;100.00;62759.84;5226074;28;20029;-93
2021/12/24 11:34:42;;;;;;;67.03;42.20;;;;;;;-145.45;100.00;62759.84;5209848;28;20014;-91
2021/12/24 11:37:14;;;;;;;71.00;41.65;;;;;;;-145.45;100.00;62759.84;5208865;28;20026;-92
2021/12/24 11:39:45;;;;;;;66.32;40.90;;;;;;;-145.45;100.00;62759.84;5208200;28;20113;-92
2021/12/24 11:42:19;;;;;;;69.38;40.63;;;;;;;-145.45;100.00;62759.84;5223833;28;20022;-92
2021/12/24 11:44:50;;;;;;;72.68;41.40;;;;;;;-145.45;100.00;62759.84;5224611;28;20349;-91
2021/12/24 11:47:22;;;;;;;68.57;39.28;;;;;;;-145.45;100.00;62759.84;5225030;28;20034;-91
2021/12/24 11:49:53;;;;;;;60.78;36.03;;;;;;;-145.45;100.00;62759.84;5225318;28;20023;-92
2021/12/24 11:52:27;;;;;;;68.30;38.63;;;;;;;-145.45;100.00;62759.84;5223824;28;20113;-91
2021/12/24 11:55:02;;;;;;;69.63;37.08;;;;;;;-145.45;100.00;62759.84;5225455;28;20019;-91
2021/12/24 11:57:59;;;;;;;67.13;37.28;;;;;;;-145.45;100.00;62759.84;5225484;28;20042;-91
2021/12/24 12:00:44;;;;;;;64.32;37.58;;;;;;;-145.45;100.00;62759.84;5224930;28;20018;-92
2021/12/24 12:03:53;;;;;;;61.03;37.42;;;;;;;-145.45;100.00;62759.84;5205504;28;20511;-92
2021/12/24 12:06:24;;;;;;;60.65;33.90;;;;;;;-145.45;100.00;62759.84;5164972;28;20509;-92
2021/12/24 12:08:59;;;;;;;70.43;37.95;;;;;;;-145.45;100.00;62759.84;5222636;28;20018;-92
2021/12/24 12:11:41;;;;;;;62.30;35.95;;;;;;;-145.45;100.00;62759.84;5206159;28;20022;-92
2021/12/24 12:14:21;;;;;;;63.90;37.97;;;;;;;-145.45;100.00;62759.84;5206129;28;20351;-92
2021/12/24 12:16:58;;;;;;;58.97;36.90;;;;;;;-145.45;100.00;62759.84;5224141;28;20034;-92
2021/12/24 12:19:46;;;;;;;58.33;34.75;;;;;;;-145.45;100.00;62759.84;5204680;28;20043;-92
2021/12/24 12:22:47;;;;;;;62.03;34.97;;;;;;;-145.45;100.00;62759.84;5206093;28;20069;-91
2021/12/24 12:25:34;;;;;;;56.42;33.30;;;;;;;-145.45;100.00;62759.84;5205370;28;20077;-91
2021/12/24 12:28:15;;;;;;;54.08;33.40;;;;;;;-145.45;100.00;62759.84;5208418;28;20403;-91
2021/12/24 12:30:53;;;;;;;59.60;34.78;;;;;;;-145.45;100.00;62759.84;5204815;28;20034;-91
2021/12/24 12:33:41;;;;;;;59.28;34.28;;;;;;;-145.45;100.00;62759.84;5205222;28;20514;-92
2021/12/24 12:36:13;;;;;;;61.53;33.58;;;;;;;-145.45;100.00;62759.84;5205129;28;20519;-93
2021/12/24 12:38:47;;;;;;;61.65;32.67;;;;;;;-145.45;100.00;62759.84;5206452;28;20037;-94
2021/12/24 12:41:37;;;;;;;57.17;32.65;;;;;;;-145.45;100.00;62759.84;5223315;28;20058;-93
2021/12/24 12:44:15;;;;;;;59.75;34.05;;;;;;;-145.45;100.00;62759.84;5223021;28;20148;-93
2021/12/24 12:46:59;;;;;;;58.58;34.15;;;;;;;-145.45;100.00;62759.84;5205672;28;20361;-92
2021/12/24 12:49:33;;;;;;;53.10;30.05;;;;;;;-145.45;100.00;62759.84;5223432;28;20101;-92
2021/12/24 12:52:30;;;;;;;53.35;30.08;;;;;;;-145.45;100.00;62759.84;5224492;28;20018;-93
2021/12/24 12:55:03;;;;;;;51.40;29.52;;;;;;;-145.45;100.00;62759.84;5205421;28;20032;-92
2021/12/24 12:57:38;;;;;;;51.83;30.45;;;;;;;-145.45;100.00;62759.84;5205952;28;20034;-92
2021/12/24 13:00:30;;;;;;;51.83;28.60;;;;;;;-145.45;100.00;62759.84;5223295;28;20117;-93
2021/12/24 13:03:07;;;;;;;45.67;29.77;;;;;;;-145.45;100.00;62759.84;5205437;28;20085;-94
2021/12/24 13:05:41;;;;;;;50.65;29.55;;;;;;;-145.45;100.00;62759.84;5204774;28;20348;-93
2021/12/24 13:08:39;;;;;;;48.28;27.98;;;;;;;-145.45;100.00;62759.84;5205247;28;20050;-92
2021/12/24 13:11:16;;;;;;;43.42;27.58;;;;;;;-145.45;100.00;62759.84;5203020;28;20034;-91
2021/12/24 13:13:55;;;;;;;50.70;29.10;;;;;;;-145.45;100.00;62759.84;5224451;28;20090;-92